createdAt,value
2022-08-16T00:03:37.634Z,98420.88
2022-08-16T00:09:41.719Z,98418.78
2022-08-16T00:15:51.739Z,98417.75
2022-08-16T00:22:01.644Z,98423.59
2022-08-16T00:28:06.636Z,98432.28
2022-08-16T00:34:09.745Z,98431.38
2022-08-16T00:40:49.705Z,98436.38
2022-08-16T00:47:06.439Z,98442.44
2022-08-16T00:53:13.524Z,98450.88
2022-08-16T00:59:20.213Z,98443.69
2022-08-16T01:05:25.984Z,98440.22
2022-08-16T01:11:29.481Z,98432.03
2022-08-16T01:17:36.685Z,98439.97
2022-08-16T01:24:02.288Z,98435.50
2022-08-16T01:30:20.705Z,98441.81
2022-08-16T01:36:26.596Z,98442.81
2022-08-16T01:42:28.770Z,98456.16
2022-08-16T01:48:33.552Z,98463.91
2022-08-16T01:54:37.714Z,98464.03
2022-08-16T02:00:40.237Z,98473.72
2022-08-16T02:06:46.591Z,98475.41
2022-08-16T02:12:51.906Z,98474.28
2022-08-16T02:18:59.248Z,98471.41
2022-08-16T02:25:02.239Z,98475.81
2022-08-16T02:31:10.148Z,98466.78
2022-08-16T02:37:13.072Z,98477.66
2022-08-16T02:43:33.169Z,98473.56
2022-08-16T02:50:34.336Z,98473.28
2022-08-16T02:55:59.201Z,98475.50
2022-08-16T03:02:08.842Z,98471.72
2022-08-16T03:08:50.313Z,98463.91
2022-08-16T03:14:34.457Z,98458.81
2022-08-16T03:20:37.110Z,98462.88
2022-08-16T03:26:40.001Z,98468.59
2022-08-16T03:32:51.755Z,98468.06
2022-08-16T03:38:54.170Z,98474.28
2022-08-16T03:45:02.912Z,98466.16
2022-08-16T03:51:12.208Z,98470.25
2022-08-16T03:57:16.446Z,98468.34
2022-08-16T04:03:18.828Z,98469.69
2022-08-16T04:09:20.802Z,98472.66
2022-08-16T04:15:23.569Z,98465.31
2022-08-16T04:21:29.740Z,98478.09
2022-08-16T04:27:32.930Z,98480.81
2022-08-16T04:33:36.580Z,98481.59
2022-08-16T04:39:47.290Z,98488.09
2022-08-16T04:46:00.238Z,98488.63
2022-08-16T04:52:03.401Z,98504.94
2022-08-16T04:58:43.633Z,98506.31
2022-08-16T05:04:30.057Z,98515.84
2022-08-16T05:10:32.448Z,98521.56
2022-08-16T05:16:35.169Z,98528.09
2022-08-16T05:22:39.300Z,98539.47
2022-08-16T05:28:47.319Z,98545.19
2022-08-16T05:34:57.474Z,98544.59
2022-08-16T05:41:01.467Z,98550.44
2022-08-16T05:47:04.450Z,98551.09
2022-08-16T05:53:10.003Z,98553.75
2022-08-16T05:59:13.338Z,98556.06
2022-08-16T06:05:15.841Z,98559.88
2022-08-16T06:11:17.886Z,98574.72
2022-08-16T06:17:20.949Z,98580.72
2022-08-16T06:23:26.254Z,98588.78
2022-08-16T06:29:28.264Z,98581.97
2022-08-16T06:35:40.170Z,98589.50
2022-08-16T06:41:42.538Z,98598.75
2022-08-16T06:47:53.725Z,98597.72
2022-08-16T06:53:58.658Z,98591.19
2022-08-16T07:00:02.147Z,98602.72
2022-08-16T07:06:04.948Z,98600.13
2022-08-16T07:12:07.699Z,98604.63
2022-08-16T07:18:11.177Z,98606.97
2022-08-16T07:24:29.854Z,98595.06
2022-08-16T07:30:39.072Z,98605.44
2022-08-16T07:36:57.963Z,98606.94
2022-08-16T07:43:01.411Z,98612.28
2022-08-16T07:49:04.950Z,98613.34
2022-08-16T07:55:16.506Z,98612.72
2022-08-16T08:01:18.535Z,98618.97
2022-08-16T08:07:27.642Z,98616.16
2022-08-16T08:13:42.731Z,98619.38
2022-08-16T08:19:45.674Z,98617.56
2022-08-16T08:25:56.044Z,98617.91
2022-08-16T08:32:01.012Z,98622.28
2022-08-16T08:38:03.867Z,98616.94
2022-08-16T08:44:29.342Z,98620.81
2022-08-16T08:50:31.941Z,98622.19
2022-08-16T08:56:37.397Z,98616.41
2022-08-16T09:02:39.630Z,98617.41
2022-08-16T09:08:47.451Z,98619.13
2022-08-16T09:14:51.315Z,98623.41
2022-08-16T09:20:58.409Z,98624.25
2022-08-16T09:27:02.673Z,98615.09
2022-08-16T09:33:07.592Z,98609.41
2022-08-16T09:39:16.186Z,98620.09
2022-08-16T09:45:18.822Z,98613.75
2022-08-16T09:51:26.381Z,98608.03
2022-08-16T09:57:41.611Z,98614.72
2022-08-16T10:04:02.293Z,98615.06
2022-08-16T10:10:11.186Z,98613.25
2022-08-16T10:22:22.989Z,98609.50
2022-08-16T10:28:27.700Z,98597.00
2022-08-16T10:34:32.783Z,98605.75
2022-08-16T10:40:35.382Z,98601.25
2022-08-16T10:46:41.662Z,98610.66
2022-08-16T10:52:44.604Z,98610.56
2022-08-16T10:58:52.772Z,98618.78
2022-08-16T11:05:10.754Z,98611.50
2022-08-16T11:11:19.390Z,98616.88
2022-08-16T11:17:21.749Z,98622.03
2022-08-16T11:23:26.729Z,98618.41
2022-08-16T11:29:30.207Z,98626.59
2022-08-16T11:41:57.868Z,98613.38
2022-08-16T11:48:00.404Z,98605.78
2022-08-16T11:54:02.504Z,98616.25
2022-08-16T12:00:42.653Z,98620.31
2022-08-16T12:06:33.777Z,98623.00
2022-08-16T12:12:35.970Z,98615.28
2022-08-16T12:18:40.555Z,98610.69
2022-08-16T12:24:42.765Z,98614.97
2022-08-16T12:30:47.352Z,98626.63
2022-08-16T12:36:49.377Z,98623.81
2022-08-16T12:42:58.642Z,98631.28
2022-08-16T12:49:03.436Z,98620.09
2022-08-16T12:55:06.889Z,98630.53
2022-08-16T13:01:10.655Z,98625.09
2022-08-16T13:07:13.866Z,98625.59
2022-08-16T13:13:24.933Z,98616.44
2022-08-16T13:19:39.349Z,98619.25
2022-08-16T13:25:51.209Z,98623.13
2022-08-16T13:31:56.897Z,98622.94
2022-08-16T13:37:58.847Z,98627.44
2022-08-16T13:44:01.645Z,98625.81
2022-08-16T13:50:13.062Z,98624.56
2022-08-16T13:56:24.803Z,98613.66
2022-08-16T14:02:27.452Z,98615.84
2022-08-16T14:08:29.775Z,98603.22
2022-08-16T14:14:33.227Z,98610.88
2022-08-16T14:20:35.305Z,98607.91
2022-08-16T14:26:41.567Z,98615.47
2022-08-16T14:32:46.815Z,98606.53
2022-08-16T14:38:53.219Z,98616.28
2022-08-16T14:44:55.442Z,98606.34
2022-08-16T14:50:57.837Z,98616.13
2022-08-16T14:56:59.821Z,98600.25
2022-08-16T15:03:09.842Z,98609.31
2022-08-16T15:09:12.071Z,98607.47
2022-08-16T15:15:21.927Z,98613.34
2022-08-16T15:21:24.385Z,98617.94
2022-08-16T15:27:35.584Z,98618.50
2022-08-16T15:33:50.021Z,98628.34
2022-08-16T15:39:53.876Z,98629.75
2022-08-16T15:46:35.732Z,98636.88
2022-08-16T15:52:38.693Z,98630.84
2022-08-16T15:58:41.653Z,98636.63
2022-08-16T16:04:45.280Z,98638.78
2022-08-16T16:10:54.414Z,98638.00
2022-08-16T16:17:00.467Z,98646.19
2022-08-16T16:23:10.694Z,98637.19
2022-08-16T16:29:15.191Z,98637.41
2022-08-16T16:35:17.997Z,98627.91
2022-08-16T16:41:25.444Z,98627.47
2022-08-16T16:47:29.818Z,98648.78
2022-08-16T16:53:47.848Z,98646.25
2022-08-16T16:59:58.291Z,98644.38
2022-08-16T17:06:09.307Z,98654.19
2022-08-16T17:12:25.421Z,98640.81
2022-08-16T17:19:16.605Z,98651.00
2022-08-16T17:24:59.436Z,98651.09
2022-08-16T17:31:01.576Z,98658.22
2022-08-16T17:37:08.027Z,98664.66
2022-08-16T17:43:13.528Z,98665.09
2022-08-16T17:49:15.455Z,98660.03
2022-08-16T17:55:33.329Z,98655.38
2022-08-16T18:01:35.354Z,98661.47
2022-08-16T18:07:37.353Z,98659.44
2022-08-16T18:13:42.965Z,98658.22
2022-08-16T18:19:45.180Z,98667.00
2022-08-16T18:25:51.305Z,98672.50
2022-08-16T18:31:53.274Z,98674.09
2022-08-16T18:37:55.895Z,98681.19
2022-08-16T18:44:24.771Z,98674.72
2022-08-16T18:50:22.140Z,98679.78
2022-08-16T18:56:24.807Z,98679.59
2022-08-16T19:02:59.128Z,98687.38
2022-08-16T19:09:01.499Z,98700.59
2022-08-16T19:15:07.154Z,98704.94
2022-08-16T19:21:11.535Z,98705.31
2022-08-16T19:27:16.753Z,98718.00
2022-08-16T19:33:21.817Z,98732.94
2022-08-16T19:39:23.873Z,98723.78
2022-08-16T19:45:26.033Z,98730.28
2022-08-16T19:51:28.194Z,98738.38
2022-08-16T19:57:30.874Z,98742.47
2022-08-16T20:03:32.941Z,98744.69
2022-08-16T20:09:35.197Z,98747.09
2022-08-16T20:15:40.645Z,98761.31
2022-08-16T20:21:43.085Z,98753.72
2022-08-16T20:27:45.278Z,98770.72
2022-08-16T20:33:47.269Z,98775.22
2022-08-16T20:40:28.457Z,98776.50
2022-08-16T20:46:17.075Z,98781.22
2022-08-16T20:52:22.214Z,98793.50
2022-08-16T20:58:24.227Z,98791.78
2022-08-16T21:04:28.540Z,98786.44
2022-08-16T21:10:30.840Z,98806.59
2022-08-16T21:16:32.802Z,98809.63
2022-08-16T21:22:34.779Z,98808.13
2022-08-16T21:28:41.183Z,98819.66
2022-08-16T21:34:45.728Z,98808.81
2022-08-16T21:40:48.234Z,98826.38
2022-08-16T21:46:53.683Z,98812.22
2022-08-16T21:53:13.557Z,98813.97
2022-08-16T21:59:15.698Z,98816.44
2022-08-16T22:05:17.699Z,98803.44
2022-08-16T22:11:21.896Z,98813.88
2022-08-16T22:17:23.900Z,98811.75
2022-08-16T22:23:28.944Z,98822.72
2022-08-16T22:29:30.898Z,98820.84
2022-08-16T22:35:32.949Z,98824.16
2022-08-16T22:41:36.463Z,98840.00
2022-08-16T22:47:38.415Z,98834.31
2022-08-16T22:53:40.412Z,98836.50
2022-08-16T22:59:42.380Z,98830.22
2022-08-16T23:05:57.625Z,98828.34
2022-08-16T23:12:04.037Z,98823.44
2022-08-16T23:18:06.488Z,98835.38
2022-08-16T23:24:08.963Z,98819.03
2022-08-16T23:30:11.735Z,98817.94
2022-08-16T23:36:13.834Z,98817.94
2022-08-16T23:42:44.164Z,98816.78
2022-08-16T23:49:58.370Z,98819.78
2022-08-16T23:55:05.611Z,98816.72
